createdAt,value
2022-07-27T00:03:19.914Z,21.70
2022-07-27T00:08:40.845Z,21.05
2022-07-27T00:14:01.662Z,20.17
2022-07-27T00:19:23.959Z,25.58
2022-07-27T00:24:44.860Z,20.73
2022-07-27T00:30:06.438Z,20.08
2022-07-27T00:35:27.143Z,21.88
2022-07-27T00:40:47.902Z,19.33
2022-07-27T00:46:08.863Z,18.27
2022-07-27T00:51:29.712Z,18.35
2022-07-27T00:56:51.001Z,20.38
2022-07-27T01:02:12.328Z,19.77
2022-07-27T01:07:38.001Z,21.23
2022-07-27T01:12:59.367Z,17.02
2022-07-27T01:18:29.783Z,17.42
2022-07-27T01:23:50.885Z,18.40
2022-07-27T01:29:12.060Z,14.60
2022-07-27T01:34:33.929Z,15.32
2022-07-27T01:39:54.849Z,15.88
2022-07-27T01:45:15.648Z,14.80
2022-07-27T01:50:37.013Z,16.30
2022-07-27T01:55:57.841Z,18.60
2022-07-27T02:01:18.755Z,15.23
2022-07-27T02:06:39.675Z,15.13
2022-07-27T02:12:19.145Z,18.02
2022-07-27T02:17:40.306Z,14.13
2022-07-27T02:23:02.566Z,15.50
2022-07-27T02:28:23.724Z,13.75
2022-07-27T02:33:44.348Z,16.48
2022-07-27T02:39:05.084Z,18.60
2022-07-27T02:44:25.842Z,23.20
2022-07-27T02:49:46.385Z,21.30
2022-07-27T02:55:07.709Z,23.70
2022-07-27T03:00:28.628Z,23.73
2022-07-27T03:05:49.926Z,18.83
2022-07-27T03:11:10.950Z,25.35
2022-07-27T03:16:31.466Z,24.67
2022-07-27T03:21:52.828Z,25.88
2022-07-27T03:27:13.802Z,29.45
2022-07-27T03:32:34.524Z,31.80
2022-07-27T03:37:55.292Z,33.03
2022-07-27T03:43:15.829Z,30.95
2022-07-27T03:48:36.559Z,28.45
2022-07-27T03:53:57.468Z,32.08
2022-07-27T03:59:18.245Z,38.22
2022-07-27T04:04:38.795Z,30.85
2022-07-27T04:09:59.557Z,28.17
2022-07-27T04:15:21.519Z,32.92
2022-07-27T04:20:42.122Z,27.30
2022-07-27T04:26:02.617Z,33.33
2022-07-27T04:31:23.751Z,26.38
2022-07-27T04:36:44.887Z,27.27
2022-07-27T04:42:05.653Z,25.35
2022-07-27T04:47:26.564Z,23.70
2022-07-27T04:52:47.139Z,20.73
2022-07-27T04:58:07.840Z,18.95
2022-07-27T05:03:28.750Z,22.65
2022-07-27T05:08:49.325Z,18.85
2022-07-27T05:14:10.013Z,16.58
2022-07-27T05:19:39.785Z,15.13
2022-07-27T05:25:01.703Z,14.07
2022-07-27T05:30:24.444Z,18.50
2022-07-27T05:35:45.371Z,19.83
2022-07-27T05:41:09.707Z,20.50
2022-07-27T05:46:33.262Z,22.75
2022-07-27T05:51:53.887Z,23.13
2022-07-27T05:57:15.634Z,18.38
2022-07-27T06:02:36.609Z,14.45
2022-07-27T06:08:00.747Z,15.32
2022-07-27T06:13:24.290Z,14.60
2022-07-27T06:18:48.948Z,17.38
2022-07-27T06:24:09.698Z,19.63
2022-07-27T06:29:30.596Z,15.05
2022-07-27T06:34:51.278Z,15.77
2022-07-27T06:40:14.189Z,16.08
2022-07-27T06:45:35.210Z,16.95
2022-07-27T06:50:56.317Z,16.98
2022-07-27T06:56:16.993Z,8.00
2022-07-27T07:01:37.710Z,12.80
2022-07-27T07:07:05.235Z,12.48
2022-07-27T07:12:28.565Z,13.18
2022-07-27T07:17:49.054Z,9.60
2022-07-27T07:23:10.192Z,15.50
2022-07-27T07:28:30.946Z,13.75
2022-07-27T07:33:51.633Z,14.68
2022-07-27T07:39:12.714Z,14.57
2022-07-27T07:44:34.137Z,12.32
2022-07-27T07:49:55.016Z,11.80
2022-07-27T07:55:18.957Z,10.02
2022-07-27T08:00:40.031Z,13.27
2022-07-27T08:06:00.736Z,15.85
2022-07-27T08:11:23.000Z,11.50
2022-07-27T08:16:43.954Z,9.85
2022-07-27T08:22:09.566Z,8.07
2022-07-27T08:27:30.436Z,10.80
2022-07-27T08:33:03.162Z,11.63
2022-07-27T08:38:27.312Z,13.00
2022-07-27T08:43:49.202Z,9.60
2022-07-27T08:49:10.879Z,13.18
2022-07-27T08:54:32.065Z,7.57
2022-07-27T08:59:56.840Z,6.88
2022-07-27T09:05:17.969Z,6.53
2022-07-27T09:10:39.318Z,4.18
2022-07-27T09:16:21.664Z,5.43
2022-07-27T09:21:42.985Z,2.13
2022-07-27T09:27:04.432Z,2.55
2022-07-27T09:32:25.086Z,3.42
2022-07-27T09:37:45.971Z,2.70
2022-07-27T09:44:12.499Z,2.72
2022-07-27T09:48:53.377Z,3.10
2022-07-27T09:54:14.398Z,3.65
2022-07-27T09:59:35.293Z,3.63
2022-07-27T10:04:57.137Z,2.13
2022-07-27T10:10:17.883Z,4.00
2022-07-27T10:15:41.595Z,2.50
2022-07-27T10:21:08.551Z,8.57
2022-07-27T10:26:33.234Z,5.38
2022-07-27T10:31:53.618Z,2.78
2022-07-27T10:37:16.056Z,1.13
2022-07-27T10:42:38.645Z,2.95
2022-07-27T10:47:59.500Z,0.80
2022-07-27T10:54:02.311Z,2.15
2022-07-27T11:11:02.300Z,2.75
2022-07-27T11:16:25.773Z,3.78
2022-07-27T11:21:49.450Z,4.15
2022-07-27T11:27:17.173Z,1.20
2022-07-27T11:32:38.862Z,3.28
2022-07-27T11:38:05.595Z,1.42
2022-07-27T11:43:37.496Z,4.70
2022-07-27T11:49:07.973Z,1.50
2022-07-27T11:54:32.971Z,1.67
2022-07-27T11:59:53.548Z,2.88
2022-07-27T12:05:14.307Z,3.67
2022-07-27T12:10:37.718Z,4.20
2022-07-27T12:15:59.254Z,5.22
2022-07-27T12:21:20.387Z,2.13
2022-07-27T12:26:41.084Z,2.65
2022-07-27T12:32:04.253Z,1.75
2022-07-27T12:37:30.666Z,3.55
2022-07-27T12:43:02.819Z,5.45
2022-07-27T12:48:25.954Z,4.68
2022-07-27T12:53:46.709Z,6.32
2022-07-27T12:59:07.388Z,8.20
2022-07-27T13:04:27.998Z,4.60
2022-07-27T13:10:02.291Z,5.75
2022-07-27T13:15:24.374Z,6.90
2022-07-27T13:20:45.107Z,6.28
2022-07-27T13:26:05.605Z,6.68
2022-07-27T13:31:26.582Z,5.55
2022-07-27T13:36:47.963Z,9.80
2022-07-27T13:42:08.997Z,13.07
2022-07-27T13:47:29.683Z,10.20
2022-07-27T13:52:50.275Z,6.78
2022-07-27T13:58:11.938Z,9.40
2022-07-27T14:03:32.451Z,9.50
2022-07-27T14:08:53.055Z,6.43
2022-07-27T14:14:13.633Z,6.38
2022-07-27T14:19:36.550Z,9.63
2022-07-27T14:24:57.151Z,3.90
2022-07-27T14:30:20.913Z,4.88
2022-07-27T14:35:42.549Z,10.43
2022-07-27T14:41:03.991Z,9.38
2022-07-27T14:46:24.930Z,13.30
2022-07-27T14:51:45.722Z,12.15
2022-07-27T14:57:06.782Z,28.35
2022-07-27T15:02:27.474Z,8.00
2022-07-27T15:07:48.751Z,6.75
2022-07-27T15:13:09.786Z,7.13
2022-07-27T15:18:36.467Z,8.18
2022-07-27T15:23:59.127Z,11.30
2022-07-27T15:29:19.797Z,9.60
2022-07-27T15:34:40.555Z,12.52
2022-07-27T15:40:21.381Z,14.52
2022-07-27T15:45:49.032Z,10.45
2022-07-27T15:51:09.562Z,12.23
2022-07-27T15:56:30.628Z,14.15
2022-07-27T16:01:51.557Z,10.65
2022-07-27T16:07:14.178Z,12.05
2022-07-27T16:12:38.143Z,10.93
2022-07-27T16:17:59.435Z,27.80
2022-07-27T16:23:21.610Z,8.75
2022-07-27T16:28:45.566Z,9.10
2022-07-27T16:34:06.511Z,13.60
2022-07-27T16:39:27.362Z,9.43
2022-07-27T16:44:48.085Z,9.73
2022-07-27T16:50:09.262Z,10.90
2022-07-27T16:55:30.034Z,11.40
2022-07-27T17:00:51.447Z,16.98
2022-07-27T17:06:12.116Z,18.10
2022-07-27T17:11:37.466Z,13.65
2022-07-27T17:16:58.519Z,18.60
2022-07-27T17:22:19.173Z,19.48
2022-07-27T17:27:40.413Z,18.73
2022-07-27T17:33:01.268Z,15.45
2022-07-27T17:38:22.341Z,14.52
2022-07-27T17:43:43.522Z,20.52
2022-07-27T17:49:04.488Z,16.77
2022-07-27T17:54:25.949Z,13.07
2022-07-27T17:59:47.130Z,14.20
2022-07-27T18:05:08.510Z,13.98
2022-07-27T18:10:29.050Z,17.98
2022-07-27T18:15:54.205Z,14.48
2022-07-27T18:21:15.871Z,13.75
2022-07-27T18:26:36.662Z,13.55
2022-07-27T18:31:59.775Z,13.63
2022-07-27T18:37:20.463Z,8.63
2022-07-27T18:42:41.016Z,11.95
2022-07-27T18:48:01.721Z,11.93
2022-07-27T18:53:22.878Z,11.43
2022-07-27T18:58:43.832Z,9.18
2022-07-27T19:04:05.888Z,8.73
2022-07-27T19:09:26.651Z,13.25
2022-07-27T19:14:50.070Z,8.55
2022-07-27T19:20:12.222Z,10.90
2022-07-27T19:25:34.017Z,10.75
2022-07-27T19:30:54.905Z,11.73
2022-07-27T19:36:16.156Z,13.35
2022-07-27T19:41:37.297Z,9.05
2022-07-27T19:46:59.018Z,15.13
2022-07-27T19:52:21.667Z,9.85
2022-07-27T19:57:42.440Z,10.80
2022-07-27T20:03:03.552Z,10.75
2022-07-27T20:08:24.190Z,12.80
2022-07-27T20:13:44.821Z,10.32
2022-07-27T20:19:05.627Z,10.68
2022-07-27T20:24:28.014Z,13.80
2022-07-27T20:29:48.965Z,8.80
2022-07-27T20:35:10.068Z,10.80
2022-07-27T20:40:31.834Z,11.50
2022-07-27T20:45:52.923Z,10.95
2022-07-27T20:51:14.109Z,11.73
2022-07-27T20:56:34.786Z,10.63
2022-07-27T21:01:55.505Z,12.30
2022-07-27T21:07:15.975Z,14.38
2022-07-27T21:12:36.639Z,12.52
2022-07-27T21:17:57.269Z,12.00
2022-07-27T21:23:36.527Z,13.98
2022-07-27T21:28:59.527Z,12.82
2022-07-27T21:34:21.927Z,8.52
2022-07-27T21:39:45.872Z,15.55
2022-07-27T21:45:07.304Z,13.88
2022-07-27T21:50:29.256Z,11.60
2022-07-27T21:55:50.041Z,12.48
2022-07-27T22:01:11.648Z,11.50
2022-07-27T22:06:32.549Z,13.82
2022-07-27T22:11:53.281Z,11.48
2022-07-27T22:17:17.187Z,10.88
2022-07-27T22:22:38.087Z,9.32
2022-07-27T22:27:59.006Z,10.40
2022-07-27T22:33:19.924Z,11.15
2022-07-27T22:38:41.004Z,10.68
2022-07-27T22:44:01.977Z,15.85
2022-07-27T22:49:23.141Z,12.48
2022-07-27T22:54:44.632Z,9.55
2022-07-27T23:00:08.106Z,13.25
2022-07-27T23:05:30.271Z,12.57
2022-07-27T23:10:50.886Z,11.95
2022-07-27T23:16:11.817Z,10.70
2022-07-27T23:21:53.975Z,10.27
2022-07-27T23:27:36.776Z,8.57
2022-07-27T23:32:57.614Z,8.15
2022-07-27T23:38:18.076Z,8.25
2022-07-27T23:43:38.927Z,7.20
2022-07-27T23:49:01.119Z,7.30
2022-07-27T23:54:22.233Z,4.55
2022-07-27T23:59:42.878Z,5.75
